SWA1283 KRDU-KBWI
Flight info
| Callsign | SWA1283 |
|---|---|
| Flight time | 0h 45m |
| Altitude | 29000 |
| Route | BEXGO5 BOUSY THHMP RAVNN8 |
| Aircraft | B737/M-SADE2E3GIJ4RWZ/LB1D1 |
Departure
| Time | 2026-05-07 23:59 |
|---|---|
| Airport | Raleigh-Durham International Airport (KRDU) |
Arrival
| Time | 2026-05-08 00:44 |
|---|---|
| Airport | Baltimore/Washington International Thurgood Marshall Airport (KBWI) |
| Time | Latitude | Longitude | Altitude | Speed | Heading |
|---|---|---|---|---|---|
| 2026-05-07 23:37 | 35.87428 | -78.78915 | 443 ft | 0 kts | 343° |
| 2026-05-07 23:52 | 35.87416 | -78.78911 | 443 ft | 3 kts | 347° |
| 2026-05-07 23:52 | 35.87396 | -78.78905 | 443 ft | 3 kts | 340° |
| 2026-05-07 23:52 | 35.87378 | -78.78895 | 443 ft | 3 kts | 330° |
| 2026-05-07 23:53 | 35.87361 | -78.78882 | 443 ft | 3 kts | 318° |
| 2026-05-07 23:53 | 35.87348 | -78.78864 | 443 ft | 3 kts | 297° |
| 2026-05-07 23:53 | 35.87343 | -78.78843 | 443 ft | 3 kts | 246° |
| 2026-05-07 23:53 | 35.87346 | -78.78836 | 443 ft | 0 kts | 225° |
| 2026-05-07 23:55 | 35.87346 | -78.78837 | 443 ft | 1 kts | 225° |
| 2026-05-07 23:55 | 35.87315 | -78.78874 | 443 ft | 13 kts | 224° |
| 2026-05-07 23:56 | 35.87212 | -78.78998 | 443 ft | 27 kts | 224° |
| 2026-05-07 23:56 | 35.87078 | -78.79164 | 443 ft | 26 kts | 225° |
| 2026-05-07 23:56 | 35.86955 | -78.79315 | 443 ft | 24 kts | 225° |
| 2026-05-07 23:56 | 35.86845 | -78.79453 | 443 ft | 22 kts | 225° |
| 2026-05-07 23:57 | 35.86738 | -78.79584 | 443 ft | 21 kts | 225° |
| 2026-05-07 23:57 | 35.86633 | -78.79712 | 443 ft | 20 kts | 225° |
| 2026-05-07 23:57 | 35.86550 | -78.79798 | 443 ft | 11 kts | 179° |
| 2026-05-07 23:57 | 35.86500 | -78.79739 | 443 ft | 10 kts | 103° |
| 2026-05-07 23:58 | 35.86527 | -78.79653 | 443 ft | 13 kts | 44° |
| 2026-05-07 23:58 | 35.86640 | -78.79514 | 443 ft | 47 kts | 46° |
| 2026-05-07 23:58 | 35.87058 | -78.78997 | 443 ft | 119 kts | 45° |
| 2026-05-07 23:58 | 35.87765 | -78.78145 | 720 ft | 150 kts | 42° |
| 2026-05-07 23:59 | 35.88501 | -78.77320 | 1739 ft | 134 kts | 42° |
| 2026-05-07 23:59 | 35.89189 | -78.76506 | 2414 ft | 144 kts | 42° |
| 2026-05-07 23:59 | 35.89974 | -78.75632 | 2941 ft | 159 kts | 43° |
| 2026-05-07 23:59 | 35.90850 | -78.74649 | 3339 ft | 187 kts | 42° |
| 2026-05-08 00:00 | 35.91800 | -78.73381 | 3663 ft | 214 kts | 44° |
| 2026-05-08 00:00 | 35.92871 | -78.71919 | 3961 ft | 245 kts | 44° |
| 2026-05-08 00:00 | 35.94079 | -78.70250 | 4330 ft | 274 kts | 44° |
| 2026-05-08 00:00 | 35.95366 | -78.68419 | 4919 ft | 296 kts | 45° |
| 2026-05-08 00:01 | 35.96715 | -78.66434 | 5811 ft | 306 kts | 43° |
| 2026-05-08 00:01 | 35.98228 | -78.64559 | 6739 ft | 310 kts | 33° |
| 2026-05-08 00:01 | 35.99968 | -78.62979 | 7664 ft | 312 kts | 25° |
| 2026-05-08 00:01 | 36.01819 | -78.61513 | 8578 ft | 319 kts | 23° |
| 2026-05-08 00:02 | 36.03717 | -78.60035 | 9475 ft | 326 kts | 23° |
| 2026-05-08 00:02 | 36.05662 | -78.58512 | 10315 ft | 334 kts | 23° |
| 2026-05-08 00:02 | 36.07665 | -78.56936 | 10977 ft | 351 kts | 23° |
| 2026-05-08 00:02 | 36.09767 | -78.55276 | 11625 ft | 364 kts | 23° |
| 2026-05-08 00:03 | 36.11920 | -78.53571 | 12444 ft | 371 kts | 23° |
| 2026-05-08 00:03 | 36.14121 | -78.51826 | 13270 ft | 378 kts | 23° |
| 2026-05-08 00:03 | 36.16359 | -78.50049 | 14081 ft | 385 kts | 23° |
| 2026-05-08 00:03 | 36.18635 | -78.48242 | 14888 ft | 392 kts | 23° |
| 2026-05-08 00:04 | 36.20952 | -78.46402 | 15685 ft | 399 kts | 23° |
| 2026-05-08 00:04 | 36.23282 | -78.44551 | 16426 ft | 406 kts | 23° |
| 2026-05-08 00:04 | 36.25705 | -78.42630 | 17170 ft | 413 kts | 23° |
| 2026-05-08 00:04 | 36.28142 | -78.40672 | 17887 ft | 422 kts | 25° |
| 2026-05-08 00:05 | 36.30536 | -78.38574 | 18510 ft | 434 kts | 28° |
| 2026-05-08 00:05 | 36.32964 | -78.36294 | 19159 ft | 442 kts | 30° |
| 2026-05-08 00:05 | 36.35408 | -78.33927 | 19949 ft | 446 kts | 30° |
| 2026-05-08 00:05 | 36.37881 | -78.31576 | 20698 ft | 450 kts | 29° |
| 2026-05-08 00:06 | 36.40381 | -78.29223 | 21410 ft | 454 kts | 28° |
| 2026-05-08 00:06 | 36.42916 | -78.26849 | 22082 ft | 458 kts | 28° |
| 2026-05-08 00:06 | 36.45475 | -78.24455 | 22731 ft | 463 kts | 28° |
| 2026-05-08 00:06 | 36.48065 | -78.22034 | 23363 ft | 467 kts | 27° |
| 2026-05-08 00:07 | 36.50662 | -78.19597 | 24093 ft | 467 kts | 27° |
| 2026-05-08 00:07 | 36.53252 | -78.17160 | 24914 ft | 465 kts | 27° |
| 2026-05-08 00:07 | 36.55830 | -78.14729 | 25634 ft | 466 kts | 27° |
| 2026-05-08 00:07 | 36.58398 | -78.12335 | 26294 ft | 467 kts | 26° |
| 2026-05-08 00:08 | 36.61020 | -78.09869 | 26980 ft | 467 kts | 26° |
| 2026-05-08 00:08 | 36.63608 | -78.07422 | 27629 ft | 468 kts | 26° |
| 2026-05-08 00:08 | 36.66165 | -78.04999 | 28298 ft | 467 kts | 26° |
| 2026-05-08 00:08 | 36.68763 | -78.02534 | 28687 ft | 470 kts | 26° |
| 2026-05-08 00:09 | 36.71369 | -78.00059 | 28903 ft | 471 kts | 26° |
| 2026-05-08 00:09 | 36.73965 | -77.97590 | 28930 ft | 469 kts | 25° |
| 2026-05-08 00:09 | 36.79123 | -77.92687 | 28935 ft | 465 kts | 25° |
| 2026-05-08 00:10 | 36.84310 | -77.87861 | 28935 ft | 462 kts | 22° |
| 2026-05-08 00:10 | 36.89631 | -77.83382 | 28935 ft | 461 kts | 21° |
| 2026-05-08 00:11 | 36.94927 | -77.78868 | 28984 ft | 462 kts | 21° |
| 2026-05-08 00:11 | 37.00219 | -77.74320 | 29026 ft | 462 kts | 22° |
| 2026-05-08 00:12 | 37.05518 | -77.69750 | 29045 ft | 462 kts | 22° |
| 2026-05-08 00:12 | 37.10819 | -77.65179 | 29053 ft | 462 kts | 21° |
| 2026-05-08 00:13 | 37.16126 | -77.60626 | 29053 ft | 462 kts | 22° |
| 2026-05-08 00:13 | 37.20061 | -77.57228 | 29053 ft | 463 kts | 22° |
| 2026-05-08 00:14 | 37.22086 | -77.55476 | 29053 ft | 463 kts | 22° |
| 2026-05-08 00:15 | 37.27216 | -77.51061 | 29053 ft | 463 kts | 22° |
| 2026-05-08 00:15 | 37.32525 | -77.46443 | 28984 ft | 465 kts | 22° |
| 2026-05-08 00:16 | 37.35143 | -77.44159 | 28736 ft | 465 kts | 22° |
| 2026-05-08 00:16 | 37.37792 | -77.41846 | 28569 ft | 461 kts | 22° |
| 2026-05-08 00:16 | 37.40420 | -77.39550 | 28194 ft | 461 kts | 22° |
| 2026-05-08 00:16 | 37.43027 | -77.37271 | 27669 ft | 463 kts | 23° |
| 2026-05-08 00:17 | 37.45680 | -77.34961 | 27128 ft | 463 kts | 21° |
| 2026-05-08 00:17 | 37.48449 | -77.32966 | 26582 ft | 452 kts | 13° |
| 2026-05-08 00:17 | 37.51323 | -77.31496 | 26016 ft | 440 kts | 4° |
| 2026-05-08 00:17 | 37.54240 | -77.30553 | 25372 ft | 430 kts | 355° |
| 2026-05-08 00:18 | 37.57212 | -77.29923 | 24410 ft | 440 kts | 354° |
| 2026-05-08 00:18 | 37.60260 | -77.29253 | 23846 ft | 446 kts | 356° |
| 2026-05-08 00:18 | 37.63324 | -77.28529 | 23446 ft | 450 kts | 357° |
| 2026-05-08 00:18 | 37.66406 | -77.27785 | 23045 ft | 452 kts | 357° |
| 2026-05-08 00:19 | 37.69505 | -77.27040 | 22645 ft | 453 kts | 357° |
| 2026-05-08 00:19 | 37.72594 | -77.26283 | 22244 ft | 451 kts | 358° |
| 2026-05-08 00:19 | 37.75659 | -77.25489 | 21844 ft | 449 kts | 359° |
| 2026-05-08 00:19 | 37.78703 | -77.24694 | 21443 ft | 445 kts | 359° |
| 2026-05-08 00:20 | 37.81733 | -77.23904 | 21042 ft | 442 kts | 358° |
| 2026-05-08 00:20 | 37.84722 | -77.23128 | 20780 ft | 437 kts | 358° |
| 2026-05-08 00:20 | 37.87692 | -77.22358 | 20541 ft | 435 kts | 358° |
| 2026-05-08 00:20 | 37.90659 | -77.21584 | 20304 ft | 435 kts | 358° |
| 2026-05-08 00:21 | 37.93621 | -77.20819 | 20065 ft | 434 kts | 358° |
| 2026-05-08 00:21 | 37.96536 | -77.20060 | 19831 ft | 432 kts | 358° |
| 2026-05-08 00:21 | 37.99517 | -77.19282 | 19589 ft | 431 kts | 358° |
| 2026-05-08 00:21 | 38.02411 | -77.18527 | 19355 ft | 430 kts | 358° |
| 2026-05-08 00:22 | 38.05334 | -77.17767 | 19117 ft | 428 kts | 358° |
| 2026-05-08 00:22 | 38.08250 | -77.17002 | 18878 ft | 426 kts | 358° |
| 2026-05-08 00:22 | 38.11142 | -77.16252 | 18641 ft | 424 kts | 358° |
| 2026-05-08 00:22 | 38.14032 | -77.15495 | 18402 ft | 422 kts | 358° |
| 2026-05-08 00:23 | 38.16899 | -77.14743 | 18165 ft | 420 kts | 358° |
| 2026-05-08 00:23 | 38.19760 | -77.13994 | 17926 ft | 418 kts | 358° |
| 2026-05-08 00:23 | 38.22598 | -77.13248 | 17688 ft | 415 kts | 359° |
| 2026-05-08 00:23 | 38.25418 | -77.12510 | 17449 ft | 412 kts | 358° |
| 2026-05-08 00:24 | 38.28202 | -77.11779 | 17229 ft | 406 kts | 358° |
| 2026-05-08 00:24 | 38.30947 | -77.11058 | 16821 ft | 401 kts | 358° |
| 2026-05-08 00:24 | 38.33663 | -77.10336 | 16344 ft | 399 kts | 359° |
| 2026-05-08 00:24 | 38.36361 | -77.09306 | 15868 ft | 407 kts | 8° |
| 2026-05-08 00:25 | 38.38956 | -77.07804 | 15440 ft | 413 kts | 18° |
| 2026-05-08 00:25 | 38.41383 | -77.05807 | 15014 ft | 417 kts | 27° |
| 2026-05-08 00:25 | 38.43650 | -77.03514 | 14622 ft | 413 kts | 30° |
| 2026-05-08 00:25 | 38.45915 | -77.01310 | 14176 ft | 406 kts | 27° |
| 2026-05-08 00:26 | 38.47972 | -76.99457 | 13687 ft | 398 kts | 26° |
| 2026-05-08 00:26 | 38.50212 | -76.97455 | 12969 ft | 385 kts | 26° |
| 2026-05-08 00:26 | 38.52090 | -76.95782 | 12569 ft | 368 kts | 26° |
| 2026-05-08 00:26 | 38.54145 | -76.93945 | 12150 ft | 354 kts | 26° |
| 2026-05-08 00:27 | 38.56083 | -76.92032 | 11785 ft | 349 kts | 32° |
| 2026-05-08 00:27 | 38.57899 | -76.89966 | 11444 ft | 350 kts | 36° |
| 2026-05-08 00:27 | 38.59652 | -76.87811 | 11063 ft | 348 kts | 38° |
| 2026-05-08 00:27 | 38.61375 | -76.85651 | 10743 ft | 348 kts | 38° |
| 2026-05-08 00:28 | 38.63104 | -76.83528 | 10420 ft | 350 kts | 38° |
| 2026-05-08 00:28 | 38.64886 | -76.81364 | 10077 ft | 347 kts | 38° |
| 2026-05-08 00:28 | 38.66605 | -76.79291 | 9872 ft | 337 kts | 38° |
| 2026-05-08 00:28 | 38.68279 | -76.77279 | 9778 ft | 325 kts | 38° |
| 2026-05-08 00:29 | 38.69882 | -76.75268 | 9509 ft | 322 kts | 42° |
| 2026-05-08 00:29 | 38.71293 | -76.73050 | 9128 ft | 322 kts | 50° |
| 2026-05-08 00:29 | 38.72482 | -76.70617 | 8762 ft | 322 kts | 58° |
| 2026-05-08 00:29 | 38.73494 | -76.68056 | 8307 ft | 324 kts | 61° |
| 2026-05-08 00:30 | 38.74536 | -76.65487 | 7821 ft | 325 kts | 59° |
| 2026-05-08 00:30 | 38.75620 | -76.62953 | 7409 ft | 324 kts | 59° |
| 2026-05-08 00:30 | 38.76776 | -76.60486 | 6992 ft | 321 kts | 50° |
| 2026-05-08 00:30 | 38.78402 | -76.58613 | 6672 ft | 310 kts | 25° |
| 2026-05-08 00:31 | 38.80336 | -76.57516 | 6429 ft | 301 kts | 11° |
| 2026-05-08 00:31 | 38.82320 | -76.56748 | 6179 ft | 294 kts | 4° |
| 2026-05-08 00:31 | 38.84280 | -76.56695 | 5920 ft | 273 kts | 339° |
| 2026-05-08 00:31 | 38.85994 | -76.57549 | 5680 ft | 261 kts | 324° |
| 2026-05-08 00:32 | 38.87625 | -76.58507 | 5431 ft | 258 kts | 328° |
| 2026-05-08 00:32 | 38.89272 | -76.59345 | 5180 ft | 252 kts | 329° |
| 2026-05-08 00:32 | 38.90892 | -76.60159 | 4927 ft | 246 kts | 329° |
| 2026-05-08 00:32 | 38.92470 | -76.60949 | 4675 ft | 240 kts | 329° |
| 2026-05-08 00:33 | 38.94004 | -76.61732 | 4425 ft | 234 kts | 328° |
| 2026-05-08 00:33 | 38.95252 | -76.62404 | 4214 ft | 229 kts | 328° |
| 2026-05-08 00:33 | 38.96680 | -76.63233 | 4014 ft | 221 kts | 328° |
| 2026-05-08 00:33 | 38.97980 | -76.64197 | 3968 ft | 211 kts | 313° |
| 2026-05-08 00:34 | 38.98843 | -76.65674 | 3978 ft | 206 kts | 298° |
| 2026-05-08 00:34 | 38.99509 | -76.67157 | 3980 ft | 205 kts | 295° |
| 2026-05-08 00:34 | 39.00051 | -76.68856 | 3985 ft | 206 kts | 289° |
| 2026-05-08 00:34 | 39.00483 | -76.70390 | 3985 ft | 206 kts | 289° |
| 2026-05-08 00:35 | 39.00970 | -76.72123 | 3986 ft | 206 kts | 289° |
| 2026-05-08 00:35 | 39.01455 | -76.73853 | 3986 ft | 206 kts | 289° |
| 2026-05-08 00:35 | 39.01941 | -76.75586 | 3986 ft | 206 kts | 289° |
| 2026-05-08 00:35 | 39.02420 | -76.77296 | 3986 ft | 206 kts | 289° |
| 2026-05-08 00:36 | 39.02906 | -76.79026 | 3986 ft | 206 kts | 289° |
| 2026-05-08 00:36 | 39.03393 | -76.80759 | 3986 ft | 206 kts | 289° |
| 2026-05-08 00:36 | 39.03880 | -76.82492 | 3986 ft | 206 kts | 289° |
| 2026-05-08 00:36 | 39.04367 | -76.84220 | 3986 ft | 206 kts | 289° |
| 2026-05-08 00:37 | 39.04809 | -76.85972 | 3986 ft | 206 kts | 283° |
| 2026-05-08 00:37 | 39.05022 | -76.87772 | 3985 ft | 207 kts | 274° |
| 2026-05-08 00:37 | 39.05013 | -76.89556 | 3986 ft | 207 kts | 269° |
| 2026-05-08 00:38 | 39.05779 | -76.92945 | 3505 ft | 207 kts | 315° |
| 2026-05-08 00:38 | 39.07098 | -76.93752 | 3065 ft | 218 kts | 346° |
| 2026-05-08 00:38 | 39.08625 | -76.93906 | 2869 ft | 222 kts | 356° |
| 2026-05-08 00:38 | 39.10177 | -76.93887 | 2644 ft | 223 kts | 1° |
| 2026-05-08 00:39 | 39.11706 | -76.93701 | 2418 ft | 220 kts | 4° |
| 2026-05-08 00:39 | 39.13215 | -76.93433 | 2286 ft | 216 kts | 4° |
| 2026-05-08 00:39 | 39.14681 | -76.93175 | 2251 ft | 206 kts | 4° |
| 2026-05-08 00:39 | 39.16060 | -76.92921 | 2246 ft | 193 kts | 6° |
| 2026-05-08 00:40 | 39.17251 | -76.92262 | 2237 ft | 187 kts | 35° |
| 2026-05-08 00:40 | 39.17755 | -76.91364 | 2245 ft | 189 kts | 60° |
| 2026-05-08 00:40 | 39.18048 | -76.89715 | 2308 ft | 191 kts | 76° |
| 2026-05-08 00:40 | 39.18224 | -76.88006 | 2321 ft | 194 kts | 78° |
| 2026-05-08 00:41 | 39.18364 | -76.86446 | 2310 ft | 194 kts | 79° |
| 2026-05-08 00:41 | 39.18389 | -76.84708 | 2292 ft | 193 kts | 88° |
| 2026-05-08 00:41 | 39.18254 | -76.82446 | 2197 ft | 189 kts | 90° |
| 2026-05-08 00:41 | 39.18186 | -76.81330 | 2042 ft | 184 kts | 89° |
| 2026-05-08 00:42 | 39.18061 | -76.79201 | 1725 ft | 174 kts | 89° |
| 2026-05-08 00:42 | 39.18002 | -76.78169 | 1576 ft | 169 kts | 89° |
| 2026-05-08 00:42 | 39.17918 | -76.76698 | 1354 ft | 159 kts | 90° |
| 2026-05-08 00:42 | 39.17842 | -76.75333 | 1169 ft | 147 kts | 90° |
| 2026-05-08 00:43 | 39.17768 | -76.74057 | 957 ft | 142 kts | 90° |
| 2026-05-08 00:43 | 39.17703 | -76.72806 | 767 ft | 138 kts | 90° |
| 2026-05-08 00:43 | 39.17618 | -76.71586 | 583 ft | 136 kts | 89° |
| 2026-05-08 00:43 | 39.17556 | -76.70358 | 417 ft | 140 kts | 89° |
| 2026-05-08 00:44 | 39.17486 | -76.69087 | 219 ft | 144 kts | 90° |
| 2026-05-08 00:44 | 39.17416 | -76.67852 | 155 ft | 124 kts | 92° |
| 2026-05-08 00:44 | 39.17368 | -76.67025 | 154 ft | 61 kts | 94° |
| 2026-05-08 00:44 | 39.17350 | -76.66666 | 154 ft | 19 kts | 91° |
| 2026-05-08 00:45 | 39.17437 | -76.66608 | 154 ft | 18 kts | 311° |
| 2026-05-08 00:45 | 39.17459 | -76.66756 | 154 ft | 9 kts | 274° |
| 2026-05-08 00:45 | 39.17463 | -76.66811 | 154 ft | 6 kts | 281° |
| 2026-05-08 00:45 | 39.17498 | -76.66839 | 154 ft | 9 kts | 356° |
| 2026-05-08 00:46 | 39.17535 | -76.66900 | 154 ft | 11 kts | 274° |
| 2026-05-08 00:46 | 39.17559 | -76.66985 | 154 ft | 10 kts | 307° |
| 2026-05-08 00:46 | 39.17604 | -76.66982 | 154 ft | 6 kts | 80° |
| 2026-05-08 00:46 | 39.17613 | -76.66947 | 154 ft | 2 kts | 68° |
| 2026-05-08 00:47 | 39.17613 | -76.66946 | 154 ft | 0 kts | 68° |